Time;durP1;ratioP1;P1;durP2;ratioP2;P2;SDS_P1;SDS_P2;PMS_P1;PMS_P2;Temp;Humidity;BMP_temperature;BMP_pressure;BME280_temperature;BME280_humidity;BME280_pressure;Samples;Min_cycle;Max_cycle;Signal;HPM_P1;HPM_P2
2022/05/29 00:00:15;;;;;;;12.27;5.75;;;;;;;15.85;87.51;93047.59;5092977;28;20034;-52
2022/05/29 00:02:40;;;;;;;13.75;6.28;;;;;;;15.84;89.41;93048.22;5093008;28;20106;-53
2022/05/29 00:05:07;;;;;;;17.38;6.20;;;;;;;16.01;87.08;93042.41;5092983;28;20024;-49
2022/05/29 00:07:34;;;;;;;14.60;5.65;;;;;;;16.09;87.59;93039.44;5093188;28;20028;-48
2022/05/29 00:10:03;;;;;;;9.60;4.88;;;;;;;16.09;84.70;93042.94;5093117;28;20019;-51
2022/05/29 00:12:28;;;;;;;14.93;5.90;;;;;;;16.00;85.19;93052.09;5093044;28;20020;-50
2022/05/29 00:14:55;;;;;;;11.40;5.38;;;;;;;15.99;86.64;93064.56;5093024;28;20046;-49
2022/05/29 00:17:20;;;;;;;11.00;5.47;;;;;;;16.00;86.06;93071.59;5092895;28;20066;-50
2022/05/29 00:19:46;;;;;;;10.10;5.63;;;;;;;15.99;87.56;93100.00;5092658;28;20489;-48
2022/05/29 00:22:16;;;;;;;13.20;5.28;;;;;;;16.05;87.75;93098.38;5092873;28;20081;-51
2022/05/29 00:24:43;;;;;;;10.25;6.07;;;;;;;16.11;87.27;93112.00;5092841;28;20051;-49
2022/05/29 00:27:11;;;;;;;17.67;6.10;;;;;;;16.10;86.74;93130.75;5092439;28;20019;-48
2022/05/29 00:29:37;;;;;;;11.52;6.13;;;;;;;16.09;86.89;93145.28;5092563;28;20111;-49
2022/05/29 00:32:04;;;;;;;12.48;5.47;;;;;;;16.20;87.40;93153.72;5092720;28;20052;-51
2022/05/29 00:34:29;;;;;;;12.07;5.55;;;;;;;16.18;87.09;93134.06;5092623;28;20413;-47
2022/05/29 00:36:55;;;;;;;16.55;7.05;;;;;;;16.07;87.57;93145.84;5092644;28;20023;-48
2022/05/29 00:39:24;;;;;;;8.52;5.47;;;;;;;16.04;87.54;93140.75;5092148;28;20115;-50
2022/05/29 00:41:50;;;;;;;12.15;5.63;;;;;;;15.91;88.28;93142.69;5092254;28;20020;-47
2022/05/29 00:44:23;;;;;;;12.48;6.55;;;;;;;15.78;89.46;93125.75;5093622;28;20024;-49
2022/05/29 00:46:55;;;;;;;16.90;5.90;;;;;;;15.67;88.62;93104.81;5112315;28;20516;-48
2022/05/29 00:49:27;;;;;;;10.07;4.95;;;;;;;15.53;89.52;93078.78;5112772;28;20031;-47
2022/05/29 00:52:02;;;;;;;14.18;5.50;;;;;;;15.31;90.11;93048.66;5112420;28;20024;-48
2022/05/29 00:54:30;;;;;;;13.25;5.55;;;;;;;15.61;90.12;93073.06;5111129;28;20027;-49
2022/05/29 00:56:57;;;;;;;10.40;5.50;;;;;;;15.70;89.34;93069.53;5112542;28;20043;-48
2022/05/29 00:59:26;;;;;;;12.43;5.45;;;;;;;15.73;88.52;93059.97;5111549;28;20028;-48
2022/05/29 01:01:53;;;;;;;11.32;5.35;;;;;;;15.80;87.84;93054.25;5112499;28;20108;-48
2022/05/29 01:04:20;;;;;;;17.52;5.15;;;;;;;15.83;88.66;93066.25;5112420;28;20140;-48
2022/05/29 01:06:45;;;;;;;20.75;5.68;;;;;;;15.79;89.24;93060.38;5111012;28;20019;-48
2022/05/29 01:09:11;;;;;;;12.65;5.70;;;;;;;15.82;88.73;93045.28;5112236;28;20022;-52
2022/05/29 01:12:18;;;;;;;14.88;4.97;;;;;;;15.83;88.22;93046.75;5111169;28;20092;-52
2022/05/29 01:14:51;;;;;;;15.20;4.72;;;;;;;15.93;88.30;93033.50;5112026;28;20488;-49
2022/05/29 01:17:32;;;;;;;9.23;4.78;;;;;;;15.87;88.10;93016.41;5110965;28;20079;-49
2022/05/29 01:20:30;;;;;;;21.50;5.65;;;;;;;15.88;88.17;93018.59;5110694;28;20073;-50
2022/05/29 01:23:15;;;;;;;8.55;5.18;;;;;;;16.02;87.23;93013.25;5110976;28;20034;-50
2022/05/29 01:25:53;;;;;;;8.52;4.75;;;;;;;16.03;85.23;92995.19;5110564;28;20015;-48
2022/05/29 01:28:25;;;;;;;17.55;5.50;;;;;;;15.97;85.40;92983.66;5111686;28;20701;-50
2022/05/29 01:31:00;;;;;;;15.57;5.90;;;;;;;15.87;86.08;92983.00;5111973;28;20027;-50
2022/05/29 01:34:15;;;;;;;17.05;5.43;;;;;;;15.83;86.28;92963.97;5110476;28;20023;-49
2022/05/29 01:37:08;;;;;;;10.05;5.25;;;;;;;15.83;85.61;92968.81;5111437;28;20108;-50
2022/05/29 01:40:02;;;;;;;10.40;5.28;;;;;;;15.73;85.78;92985.56;5110318;28;20564;-48
2022/05/29 01:42:31;;;;;;;12.73;5.40;;;;;;;15.67;87.45;92990.72;5110600;28;20084;-50
2022/05/29 01:45:25;;;;;;;17.88;6.13;;;;;;;15.63;87.77;92989.72;5111321;28;20031;-50
2022/05/29 01:48:14;;;;;;;12.73;5.03;;;;;;;15.56;87.99;92990.63;5109756;28;20063;-50
2022/05/29 01:51:03;;;;;;;8.57;5.05;;;;;;;15.60;87.87;92993.66;5111572;28;20442;-50
2022/05/29 01:54:11;;;;;;;11.80;5.47;;;;;;;15.62;87.91;93014.03;5110090;28;20035;-51
2022/05/29 01:56:41;;;;;;;10.93;5.75;;;;;;;15.63;86.75;93009.19;5105301;28;20028;-49
2022/05/29 01:59:14;;;;;;;13.55;5.15;;;;;;;15.63;86.43;92990.44;5110207;28;20032;-50
2022/05/29 02:01:44;;;;;;;12.48;5.97;;;;;;;15.72;85.96;92964.59;5111118;28;20027;-50
2022/05/29 02:04:13;;;;;;;8.27;4.35;;;;;;;15.65;86.43;92965.53;5111328;28;20047;-50
2022/05/29 02:09:34;;;;;;;10.57;4.50;;;;;;;15.52;86.56;92946.56;5111324;28;20033;-49
2022/05/29 02:12:00;;;;;;;10.68;4.38;;;;;;;15.58;87.04;92965.72;5109550;28;20020;-49
2022/05/29 02:14:37;;;;;;;14.82;5.40;;;;;;;15.62;86.84;92957.63;5111237;28;20567;-52
2022/05/29 02:17:07;;;;;;;9.18;5.72;;;;;;;15.49;86.59;92961.66;5109847;28;20022;-52
2022/05/29 02:20:04;;;;;;;8.05;4.88;;;;;;;15.67;85.98;92990.72;5109727;28;20020;-48
2022/05/29 02:22:35;;;;;;;11.98;4.85;;;;;;;15.70;85.86;92995.09;5108526;28;20747;-49
2022/05/29 02:25:06;;;;;;;10.13;5.43;;;;;;;15.70;86.17;92997.88;5110823;28;20030;-49
2022/05/29 02:27:36;;;;;;;9.43;4.85;;;;;;;15.78;85.96;93011.63;5109539;28;20020;-50
2022/05/29 02:30:03;;;;;;;12.30;5.28;;;;;;;15.69;85.49;93004.03;5109845;28;20058;-47
2022/05/29 02:33:00;;;;;;;10.55;4.40;;;;;;;15.72;84.72;93011.22;5110670;28;20028;-48
2022/05/29 02:35:51;;;;;;;13.32;5.20;;;;;;;15.67;84.54;93010.19;5110893;28;20089;-48
2022/05/29 02:38:25;;;;;;;7.72;4.97;;;;;;;15.64;84.82;93007.84;5094094;28;20466;-51
2022/05/29 02:41:06;;;;;;;11.10;5.20;;;;;;;15.61;85.17;93000.72;5110575;28;20052;-49
2022/05/29 02:44:11;;;;;;;10.30;5.18;;;;;;;15.41;85.69;92997.25;5109445;28;20035;-48
2022/05/29 02:47:09;;;;;;;5.13;4.35;;;;;;;15.48;86.35;92990.06;5088838;28;20040;-49
2022/05/29 02:49:38;;;;;;;11.40;5.10;;;;;;;15.47;85.99;92992.13;5090328;28;20028;-48
2022/05/29 02:52:14;;;;;;;10.63;4.40;;;;;;;15.48;87.00;92974.13;5088885;28;20024;-51
2022/05/29 02:54:39;;;;;;;8.90;4.45;;;;;;;15.55;85.83;92958.56;5089293;28;20081;-49
2022/05/29 02:57:05;;;;;;;7.65;3.90;;;;;;;15.40;85.50;92942.91;5089990;28;20024;-47
2022/05/29 02:59:43;;;;;;;11.48;4.32;;;;;;;15.54;86.15;92948.75;5090338;28;20023;-48
2022/05/29 03:02:15;;;;;;;8.73;4.50;;;;;;;15.57;86.67;92934.38;5090317;28;20064;-51
2022/05/29 03:04:56;;;;;;;10.88;4.72;;;;;;;15.58;86.76;92918.41;5090277;28;20055;-51
2022/05/29 03:07:36;;;;;;;6.57;3.83;;;;;;;15.60;84.91;92904.63;5088762;28;20062;-52
2022/05/29 03:10:41;;;;;;;8.77;4.28;;;;;;;15.54;85.59;92893.84;5089936;28;20024;-49
2022/05/29 03:13:19;;;;;;;13.88;5.50;;;;;;;15.45;85.48;92879.97;5089529;28;20024;-50
2022/05/29 03:16:06;;;;;;;12.65;5.53;;;;;;;15.35;86.36;92877.22;5089987;28;20020;-49
2022/05/29 03:18:39;;;;;;;13.43;5.30;;;;;;;15.48;84.81;92884.34;5089951;28;20035;-50
2022/05/29 03:21:05;;;;;;;11.50;5.05;;;;;;;15.49;84.80;92875.41;5088705;28;20089;-49
2022/05/29 03:23:53;;;;;;;13.77;5.07;;;;;;;15.48;84.44;92873.22;5092545;28;20099;-51
2022/05/29 03:26:40;;;;;;;13.15;5.28;;;;;;;15.11;85.21;92876.31;5092541;28;20020;-50
2022/05/29 03:29:12;;;;;;;10.75;5.18;;;;;;;14.89;86.66;92891.47;5093668;28;20077;-49
2022/05/29 03:31:39;;;;;;;8.30;5.15;;;;;;;14.98;86.81;92881.63;5093902;28;20520;-50
2022/05/29 03:34:06;;;;;;;12.00;4.70;;;;;;;15.01;86.56;92888.78;5092328;28;20020;-50
2022/05/29 03:36:32;;;;;;;11.82;5.05;;;;;;;15.00;86.91;92893.63;5092526;28;20074;-53
2022/05/29 03:38:57;;;;;;;10.43;4.82;;;;;;;14.99;87.14;92896.97;5093463;28;20489;-48
2022/05/29 03:41:45;;;;;;;9.98;5.28;;;;;;;15.08;87.53;92901.78;5093609;28;20024;-49
2022/05/29 03:44:12;;;;;;;17.08;5.60;;;;;;;15.16;87.83;92905.09;5092115;28;20141;-51
2022/05/29 03:46:39;;;;;;;10.93;4.90;;;;;;;15.23;87.87;92893.09;5093283;28;20036;-49
2022/05/29 03:49:08;;;;;;;13.07;4.57;;;;;;;15.35;86.76;92891.13;5093542;28;20028;-50
2022/05/29 03:51:34;;;;;;;;;;;;;;;15.33;87.58;92895.81;5093735;28;20039;-49
2022/05/29 03:54:00;;;;;;;12.95;5.22;;;;;;;15.38;87.33;92892.72;5093471;28;19954;-49
2022/05/29 03:56:25;;;;;;;18.05;5.47;;;;;;;15.38;87.50;92887.16;5093399;28;20402;-49
2022/05/29 03:58:51;;;;;;;12.30;5.47;;;;;;;15.55;87.09;92894.56;5093066;28;20099;-50
2022/05/29 04:01:16;;;;;;;11.73;5.20;;;;;;;15.61;84.80;92906.09;5093333;28;20532;-50
2022/05/29 04:03:42;;;;;;;13.60;6.72;;;;;;;15.50;85.60;92903.97;5092969;28;20020;-50
2022/05/29 04:06:07;;;;;;;10.38;5.38;;;;;;;15.61;85.51;92897.75;5093182;28;20048;-48
2022/05/29 04:14:01;;;;;;;10.55;6.68;;;;;;;15.57;84.84;92878.00;5092118;28;20031;-50
2022/05/29 04:16:27;;;;;;;10.60;6.63;;;;;;;15.58;83.93;92879.44;5092992;28;20020;-49
2022/05/29 04:18:52;;;;;;;13.05;7.13;;;;;;;15.65;85.48;92879.28;5092746;28;20031;-48
2022/05/29 04:21:18;;;;;;;23.38;8.02;;;;;;;15.74;86.10;92878.47;5092956;28;20016;-48
2022/05/29 04:23:43;;;;;;;32.25;18.80;;;;;;;15.82;86.17;92886.63;5092572;28;20093;-49
2022/05/29 04:26:12;;;;;;;15.48;9.20;;;;;;;15.88;85.95;92882.19;5092618;28;20107;-49
2022/05/29 04:28:38;;;;;;;18.30;7.10;;;;;;;15.83;85.21;92880.44;5092872;28;20051;-48
2022/05/29 04:31:03;;;;;;;9.43;7.05;;;;;;;15.88;85.94;92876.59;5092745;28;20031;-48
2022/05/29 04:33:29;;;;;;;21.65;7.82;;;;;;;16.06;85.78;92874.28;5092669;28;20015;-49
2022/05/29 04:35:55;;;;;;;13.15;7.53;;;;;;;16.15;85.78;92875.53;5092554;28;20404;-47
2022/05/29 04:38:27;;;;;;;14.60;7.43;;;;;;;16.29;84.64;92879.94;5092403;28;20489;-49
2022/05/29 04:40:54;;;;;;;33.90;9.02;;;;;;;16.43;84.36;92875.28;5092310;28;20108;-49
2022/05/29 04:43:20;;;;;;;15.70;7.10;;;;;;;16.57;84.32;92869.88;5091021;28;20408;-51
2022/05/29 04:45:47;;;;;;;11.75;7.65;;;;;;;16.67;82.73;92865.66;5106092;28;20028;-46
2022/05/29 04:48:14;;;;;;;9.60;6.75;;;;;;;16.72;83.26;92861.06;5112760;28;20031;-47
2022/05/29 04:50:40;;;;;;;14.00;7.50;;;;;;;16.86;82.88;92877.94;5112819;28;20018;-49
2022/05/29 04:53:06;;;;;;;11.85;6.63;;;;;;;16.81;81.35;92873.44;5112726;28;20423;-51
2022/05/29 04:55:31;;;;;;;8.73;5.38;;;;;;;16.81;78.69;92868.59;5112582;28;20020;-49
2022/05/29 04:57:57;;;;;;;8.70;4.50;;;;;;;16.75;77.44;92873.81;5112659;28;20029;-52
2022/05/29 05:00:23;;;;;;;9.50;5.10;;;;;;;16.76;76.88;92863.38;5112509;28;20428;-50
2022/05/29 05:02:48;;;;;;;13.43;4.65;;;;;;;16.62;76.34;92852.81;5112606;28;20492;-49
2022/05/29 05:05:15;;;;;;;11.13;4.25;;;;;;;16.64;76.98;92864.09;5112394;28;20559;-48
2022/05/29 05:07:41;;;;;;;8.80;4.55;;;;;;;16.64;76.78;92872.44;5110956;28;20588;-49
2022/05/29 05:10:11;;;;;;;8.48;4.13;;;;;;;16.65;75.41;92884.34;5112426;28;20023;-49
2022/05/29 05:12:40;;;;;;;5.05;3.47;;;;;;;16.66;75.24;92880.19;5112133;28;20028;-48
2022/05/29 05:15:07;;;;;;;4.68;3.15;;;;;;;16.70;73.87;92877.66;5111986;28;20476;-48
2022/05/29 05:17:33;;;;;;;13.82;4.55;;;;;;;16.70;74.82;92877.66;5111808;28;20496;-49
2022/05/29 05:19:58;;;;;;;8.23;4.25;;;;;;;16.83;75.62;92884.75;5111871;28;20081;-48
2022/05/29 05:22:24;;;;;;;20.45;4.97;;;;;;;16.76;77.26;92855.03;5112063;28;20028;-48
2022/05/29 05:24:49;;;;;;;6.50;3.47;;;;;;;17.03;75.84;92878.31;5112196;28;20024;-49
2022/05/29 05:27:15;;;;;;;8.63;3.70;;;;;;;17.21;73.99;92873.13;5111666;28;20022;-47
2022/05/29 05:29:41;;;;;;;8.55;3.67;;;;;;;17.16;73.72;92883.31;5111708;28;20086;-52
2022/05/29 05:32:07;;;;;;;6.70;3.53;;;;;;;17.29;74.96;92890.34;5111689;28;20028;-49
2022/05/29 05:34:32;;;;;;;12.45;6.13;;;;;;;17.54;75.05;92893.28;5111874;28;20031;-49
2022/05/29 05:36:58;;;;;;;10.40;4.07;;;;;;;17.78;77.88;92882.81;5111564;28;20420;-50
2022/05/29 05:39:24;;;;;;;14.50;5.45;;;;;;;17.99;76.98;92880.59;5110193;28;20130;-47
2022/05/29 05:41:49;;;;;;;33.58;6.90;;;;;;;18.16;76.34;92877.38;5111757;28;20062;-48
2022/05/29 05:44:15;;;;;;;9.55;4.03;;;;;;;18.29;75.68;92876.00;5109601;28;20106;-49
2022/05/29 05:46:48;;;;;;;10.48;4.25;;;;;;;18.45;73.65;92856.63;5090440;28;20056;-47
2022/05/29 05:49:19;;;;;;;19.50;4.80;;;;;;;18.66;73.83;92857.13;5091307;28;20071;-47
2022/05/29 05:51:45;;;;;;;9.27;4.65;;;;;;;18.78;71.68;92848.66;5089801;28;20512;-49
2022/05/29 05:54:12;;;;;;;9.88;4.63;;;;;;;18.86;73.03;92838.63;5091125;28;20058;-49
2022/05/29 05:56:44;;;;;;;11.20;4.75;;;;;;;19.06;71.89;92849.47;5090793;28;20108;-48
2022/05/29 05:59:10;;;;;;;13.38;5.53;;;;;;;19.20;72.45;92858.59;5090779;28;20031;-48
2022/05/29 06:01:36;;;;;;;15.68;4.95;;;;;;;19.32;70.74;92859.22;5090855;28;20028;-50
2022/05/29 06:04:01;;;;;;;9.82;3.85;;;;;;;19.37;68.65;92860.94;5090748;28;20031;-47
2022/05/29 06:06:27;;;;;;;9.43;3.22;;;;;;;19.33;64.30;92861.44;5091048;28;20028;-47
2022/05/29 06:08:52;;;;;;;9.20;3.28;;;;;;;19.33;65.85;92867.03;5090688;28;20570;-47
2022/05/29 06:11:18;;;;;;;9.15;2.95;;;;;;;19.41;66.01;92873.06;5090639;28;20019;-49
2022/05/29 06:13:43;;;;;;;9.35;3.20;;;;;;;19.34;67.23;92885.28;5090583;28;20023;-49
2022/05/29 06:16:09;;;;;;;9.77;3.05;;;;;;;19.33;65.38;92886.63;5090484;28;20081;-48
2022/05/29 06:18:35;;;;;;;7.28;2.72;;;;;;;19.44;67.81;92887.91;5090531;28;20024;-48
2022/05/29 06:21:02;;;;;;;7.55;2.85;;;;;;;19.46;64.57;92894.34;5090822;28;20031;-47
2022/05/29 06:23:28;;;;;;;6.82;2.97;;;;;;;19.55;65.88;92887.81;5090837;28;20038;-46
2022/05/29 06:25:54;;;;;;;8.18;2.90;;;;;;;19.74;66.48;92883.88;5090673;28;20031;-48
2022/05/29 06:28:19;;;;;;;7.53;3.33;;;;;;;19.79;65.35;92876.41;5090456;28;20032;-47
2022/05/29 06:30:45;;;;;;;8.18;3.00;;;;;;;19.68;64.31;92878.66;5090714;28;20031;-46
2022/05/29 06:33:12;;;;;;;10.90;3.28;;;;;;;19.92;65.72;92870.78;5090353;28;20024;-47
2022/05/29 06:35:37;;;;;;;8.43;3.17;;;;;;;19.94;65.27;92875.75;5090539;28;20053;-46
2022/05/29 06:38:03;;;;;;;9.55;2.70;;;;;;;20.00;63.19;92867.66;5090259;28;20019;-47
2022/05/29 06:40:28;;;;;;;5.97;2.58;;;;;;;20.01;63.44;92883.13;5091697;28;20034;-47
2022/05/29 06:42:54;;;;;;;13.02;3.00;;;;;;;20.19;66.58;92886.81;5110631;28;20031;-48
2022/05/29 06:45:19;;;;;;;10.20;3.15;;;;;;;20.47;64.48;92882.63;5110565;28;20034;-47
2022/05/29 06:47:45;;;;;;;13.23;3.92;;;;;;;20.89;66.25;92867.09;5110397;28;20052;-47
2022/05/29 06:50:11;;;;;;;9.25;3.00;;;;;;;21.29;62.84;92851.41;5110526;28;20023;-48
2022/05/29 06:52:37;;;;;;;9.80;3.60;;;;;;;21.59;62.96;92852.75;5110512;28;20084;-46
2022/05/29 06:55:04;;;;;;;9.15;3.70;;;;;;;21.63;61.51;92847.31;5110762;28;20100;-48
2022/05/29 06:57:46;;;;;;;10.20;3.50;;;;;;;21.78;60.57;92836.06;5111208;28;20492;-49
2022/05/29 07:08:32;;;;;;;8.73;3.00;;;;;;;22.23;57.98;92835.13;5114885;28;20702;-47
2022/05/29 07:11:01;;;;;;;5.18;2.92;;;;;;;22.41;55.21;92841.50;5114418;27;20492;-49
2022/05/29 07:13:27;;;;;;;10.05;2.80;;;;;;;22.63;55.33;92844.53;5114480;28;20027;-47
2022/05/29 07:15:53;;;;;;;13.55;3.35;;;;;;;22.63;56.05;92840.31;5113015;28;20043;-48
2022/05/29 07:18:18;;;;;;;11.98;3.30;;;;;;;22.41;55.24;92833.81;5114361;28;20020;-48
2022/05/29 07:20:44;;;;;;;10.57;2.63;;;;;;;22.44;56.11;92826.88;5114284;27;20030;-47
2022/05/29 07:23:09;;;;;;;6.40;3.00;;;;;;;23.39;54.46;92827.75;5114504;28;20024;-49
2022/05/29 07:25:35;;;;;;;7.80;2.67;;;;;;;24.41;50.10;92829.94;5113320;28;20464;-48
2022/05/29 07:28:01;;;;;;;7.07;2.58;;;;;;;25.61;46.23;92818.16;5114133;28;20027;-47
2022/05/29 07:30:27;;;;;;;7.15;2.33;;;;;;;26.08;45.31;92813.13;5112816;28;20088;-48
2022/05/29 07:32:52;;;;;;;5.80;2.88;;;;;;;26.49;45.99;92803.56;5114054;28;20035;-48
2022/05/29 07:35:18;;;;;;;5.70;2.00;;;;;;;27.48;44.60;92797.41;5113928;28;20042;-47
2022/05/29 07:37:43;;;;;;;9.13;2.72;;;;;;;28.47;42.74;92817.06;5104043;28;20032;-46
2022/05/29 07:40:10;;;;;;;8.07;2.78;;;;;;;29.41;39.95;92822.88;5093821;28;20484;-47
2022/05/29 07:45:19;;;;;;;4.35;1.75;;;;;;;29.76;36.86;92831.19;5104130;28;20033;-50
2022/05/29 07:47:46;;;;;;;11.63;2.17;;;;;;;29.20;37.00;92828.25;5113548;28;20036;-48
2022/05/29 07:50:18;;;;;;;9.45;2.17;;;;;;;28.80;37.99;92832.56;5113940;28;20019;-50
2022/05/29 07:52:44;;;;;;;7.13;2.08;;;;;;;29.47;35.85;92834.34;5113577;28;20034;-48
2022/05/29 07:55:10;;;;;;;3.20;1.60;;;;;;;29.48;36.23;92830.78;5113892;28;20046;-51
2022/05/29 07:57:36;;;;;;;8.73;2.60;;;;;;;30.03;35.54;92832.25;5113520;28;20055;-47
2022/05/29 08:00:02;;;;;;;8.95;2.15;;;;;;;30.44;35.21;92825.63;5113775;28;20522;-43
2022/05/29 08:02:30;;;;;;;6.90;2.30;;;;;;;30.12;36.28;92842.31;5113732;28;20115;-50
2022/05/29 08:04:59;;;;;;;5.70;1.92;;;;;;;29.57;36.67;92831.63;5113352;28;20035;-44
2022/05/29 08:07:24;;;;;;;;;;;;;;;29.83;36.81;92832.72;5114208;28;20023;-49
2022/05/29 08:09:50;;;;;;;8.75;2.03;;;;;;;31.02;36.02;92825.44;5112823;28;19915;-51
2022/05/29 08:12:15;;;;;;;3.70;1.80;;;;;;;31.51;34.35;92840.09;5113176;28;20462;-47
2022/05/29 08:14:41;;;;;;;8.80;2.58;;;;;;;32.50;33.58;92844.88;5113198;27;20034;-45
2022/05/29 08:17:09;;;;;;;5.80;1.98;;;;;;;32.84;31.77;92844.22;5112996;28;20031;-44
2022/05/29 08:19:35;;;;;;;7.32;2.15;;;;;;;31.73;31.35;92823.81;5113088;28;20028;-51
2022/05/29 08:22:01;;;;;;;8.82;1.98;;;;;;;31.68;32.80;92845.19;5113019;28;20027;-46
2022/05/29 08:32:38;;;;;;;5.20;1.83;;;;;;;31.67;31.46;92829.47;5113215;28;20081;-45
2022/05/29 08:35:04;;;;;;;10.85;2.00;;;;;;;32.09;30.99;92829.00;5093634;28;20036;-45
2022/05/29 08:37:29;;;;;;;8.88;1.85;;;;;;;32.68;30.82;92830.63;5092373;28;20054;-47
2022/05/29 08:39:55;;;;;;;7.10;1.98;;;;;;;32.22;31.44;92830.47;5091037;28;20039;-49
2022/05/29 08:42:21;;;;;;;5.45;1.80;;;;;;;32.66;30.63;92822.03;5092248;28;20039;-45
2022/05/29 08:44:51;;;;;;;6.03;1.67;;;;;;;31.83;30.64;92831.72;5097181;28;20021;-48
2022/05/29 08:47:23;;;;;;;8.40;1.95;;;;;;;31.55;29.77;92828.69;5112397;28;20048;-51
2022/05/29 08:49:48;;;;;;;8.70;1.70;;;;;;;31.69;30.12;92820.94;5112916;28;20439;-48
2022/05/29 08:52:32;;;;;;;9.02;2.03;;;;;;;31.51;30.83;92831.53;5112345;28;20024;-48
2022/05/29 08:55:09;;;;;;;6.97;2.00;;;;;;;31.90;31.01;92821.75;5112692;28;20024;-46
2022/05/29 08:57:59;;;;;;;8.05;1.58;;;;;;;31.17;30.07;92812.00;5112312;28;20030;-48
2022/05/29 09:00:28;;;;;;;7.88;1.98;;;;;;;31.14;30.77;92807.72;5112529;27;20412;-45
2022/05/29 09:03:18;;;;;;;9.55;2.25;;;;;;;30.63;32.31;92798.00;5112602;28;20054;-51
2022/05/29 09:05:47;;;;;;;9.73;2.40;;;;;;;30.47;32.01;92800.72;5112139;28;20020;-50
2022/05/29 09:08:17;;;;;;;;;;;;;;;30.86;32.50;92796.81;5111843;28;20031;-47
2022/05/29 09:10:44;;;;;;;7.45;1.88;;;;;;;30.63;32.23;92810.13;5112103;28;19915;-46
2022/05/29 09:13:15;;;;;;;7.43;1.97;;;;;;;31.09;32.24;92811.97;5112407;28;20415;-48
2022/05/29 09:15:45;;;;;;;5.82;1.85;;;;;;;31.49;31.93;92803.69;5112257;28;20035;-50
2022/05/29 09:18:16;;;;;;;10.07;2.22;;;;;;;31.51;31.32;92805.84;5112231;28;20024;-46
2022/05/29 09:20:47;;;;;;;13.63;2.05;;;;;;;30.38;32.22;92813.44;5110254;28;20084;-45
2022/05/29 09:23:18;;;;;;;11.05;2.13;;;;;;;30.19;31.74;92803.94;5110957;28;20058;-52
2022/05/29 09:25:44;;;;;;;8.43;2.65;;;;;;;29.51;34.40;92809.50;5110993;28;20051;-44
2022/05/29 09:28:25;;;;;;;9.77;1.90;;;;;;;30.94;32.16;92808.28;5111798;28;20480;-46
2022/05/29 09:31:13;;;;;;;6.88;2.08;;;;;;;31.64;30.95;92805.19;5096686;28;20508;-49
2022/05/29 09:33:39;;;;;;;6.32;1.70;;;;;;;31.55;30.46;92805.88;5091708;28;20034;-45
2022/05/29 09:36:38;;;;;;;7.00;2.00;;;;;;;31.35;31.36;92790.03;5091419;28;20159;-47
2022/05/29 09:39:28;;;;;;;7.00;1.75;;;;;;;31.01;30.21;92800.50;5091314;28;20068;-46
2022/05/29 09:42:06;;;;;;;6.72;2.22;;;;;;;30.44;33.17;92799.25;5085803;28;20134;-46
2022/05/29 09:44:33;;;;;;;7.72;1.95;;;;;;;30.11;32.36;92792.47;5089979;28;20028;-51
2022/05/29 09:49:40;;;;;;;10.52;1.98;;;;;;;30.71;33.76;92787.41;5090981;28;20064;-47
2022/05/29 09:50:05;;;;;;;8.02;2.00;;;;;;;30.84;32.29;92770.41;5091129;28;20462;-46
2022/05/29 09:52:35;;;;;;;5.90;1.83;;;;;;;30.52;31.59;92776.53;5090951;28;20488;-46
2022/05/29 09:55:23;;;;;;;5.18;1.63;;;;;;;30.95;31.73;92778.34;5089762;28;20043;-49
2022/05/29 09:57:48;;;;;;;7.15;1.75;;;;;;;30.90;30.11;92765.50;5090752;28;20066;-47
2022/05/29 10:00:37;;;;;;;7.82;1.60;;;;;;;30.07;32.21;92771.78;5090781;28;20099;-44
2022/05/29 10:03:03;;;;;;;;;;;;;;;29.64;33.51;92762.75;5091761;28;20040;-50
2022/05/29 10:05:35;;;;;;;9.18;2.00;;;;;;;29.30;33.36;92745.25;5089608;28;19915;-48
2022/05/29 10:08:26;;;;;;;9.20;2.13;;;;;;;28.78;33.98;92758.66;5090732;28;20554;-50
2022/05/29 10:10:52;;;;;;;6.72;2.85;;;;;;;28.66;34.16;92764.16;5090648;28;20055;-49
2022/05/29 10:13:37;;;;;;;8.25;1.98;;;;;;;29.10;34.33;92767.69;5090611;28;20408;-46
2022/05/29 10:16:03;;;;;;;8.82;3.17;;;;;;;29.41;33.87;92755.31;5090832;28;20028;-46
2022/05/29 10:18:32;;;;;;;5.03;1.80;;;;;;;30.02;34.31;92751.09;5090778;28;20185;-49
2022/05/29 10:21:27;;;;;;;6.15;1.90;;;;;;;29.59;33.30;92749.88;5090838;28;20063;-47
2022/05/29 10:24:11;;;;;;;10.38;2.92;;;;;;;28.65;33.31;92743.56;5087493;28;20063;-50
2022/05/29 10:26:37;;;;;;;11.38;2.20;;;;;;;28.78;34.94;92733.81;5090495;28;20055;-47
2022/05/29 10:29:14;;;;;;;12.02;2.30;;;;;;;29.31;32.40;92745.94;5090707;28;20501;-47
2022/05/29 10:31:40;;;;;;;24.35;3.58;;;;;;;29.03;33.24;92737.72;5090287;28;20032;-46
2022/05/29 10:34:11;;;;;;;7.18;2.75;;;;;;;29.31;34.17;92726.03;5090612;28;20024;-49
2022/05/29 10:36:37;;;;;;;11.80;2.60;;;;;;;29.91;32.38;92715.38;5089024;28;20035;-49
2022/05/29 10:39:19;;;;;;;9.23;1.98;;;;;;;29.99;31.31;92721.88;5089132;28;20492;-50
2022/05/29 10:41:45;;;;;;;10.50;2.58;;;;;;;30.39;31.75;92713.03;5090275;28;20619;-52
2022/05/29 10:44:12;;;;;;;4.88;1.88;;;;;;;30.28;30.79;92702.22;5089752;28;20118;-45
2022/05/29 10:47:21;;;;;;;11.60;2.75;;;;;;;29.68;31.42;92693.78;5109328;28;20051;-48
2022/05/29 10:50:02;;;;;;;6.70;2.40;;;;;;;29.98;32.06;92694.13;5110233;28;20061;-48
2022/05/29 10:52:39;;;;;;;10.73;2.42;;;;;;;30.16;31.63;92699.28;5109607;28;20054;-49
2022/05/29 10:55:29;;;;;;;7.97;2.33;;;;;;;29.63;32.50;92695.13;5110525;28;20024;-49
2022/05/29 10:58:13;;;;;;;9.93;2.67;;;;;;;29.61;33.36;92687.31;5110709;28;20412;-48
2022/05/29 11:00:57;;;;;;;10.10;3.00;;;;;;;29.51;33.30;92683.63;5110449;28;20031;-46
2022/05/29 11:03:26;;;;;;;9.68;3.13;;;;;;;29.49;32.81;92681.50;5110481;28;20081;-48
2022/05/29 11:06:29;;;;;;;10.93;2.53;;;;;;;30.09;32.61;92677.84;5110376;28;20032;-46
2022/05/29 11:09:20;;;;;;;7.15;3.10;;;;;;;29.23;34.59;92666.94;5109379;28;20035;-50
2022/05/29 11:12:12;;;;;;;9.10;2.90;;;;;;;28.45;35.11;92669.38;5109416;28;20031;-46
2022/05/29 11:15:04;;;;;;;9.40;2.80;;;;;;;28.47;34.87;92661.59;5110632;28;20031;-47
2022/05/29 11:18:20;;;;;;;5.70;2.55;;;;;;;28.02;35.90;92661.56;5109096;28;20031;-50
2022/05/29 11:21:27;;;;;;;7.07;2.53;;;;;;;28.01;36.22;92652.34;5071001;28;20394;-48
2022/05/29 11:24:15;;;;;;;11.82;3.17;;;;;;;27.32;36.82;92666.63;5078353;28;20484;-50
2022/05/29 11:26:55;;;;;;;11.30;3.20;;;;;;;27.36;39.21;92655.38;5090027;28;20110;-51
2022/05/29 11:29:43;;;;;;;6.97;2.88;;;;;;;27.36;37.93;92653.28;5089919;28;20031;-48
2022/05/29 11:32:13;;;;;;;9.55;3.38;;;;;;;27.41;39.26;92645.56;5105856;28;20503;-48
2022/05/29 11:34:57;;;;;;;13.75;3.63;;;;;;;27.49;37.83;92626.59;5090089;28;20039;-49
2022/05/29 11:38:07;;;;;;;5.93;3.25;;;;;;;27.54;40.96;92638.72;5089622;28;20035;-49
2022/05/29 11:40:36;;;;;;;15.88;3.60;;;;;;;27.72;38.26;92633.38;5085001;28;20564;-49
2022/05/29 11:43:38;;;;;;;14.13;4.05;;;;;;;27.46;38.36;92638.56;5105575;28;20089;-49
2022/05/29 11:51:46;;;;;;;8.85;3.20;;;;;;;27.24;40.02;92633.19;5093740;28;20039;-50
2022/05/29 11:54:14;;;;;;;;;;;;;;;26.86;40.15;92629.56;5092650;28;20500;-48
2022/05/29 11:57:19;;;;;;;9.98;4.00;;;;;;;26.62;42.80;92632.56;5091989;28;19916;-49
2022/05/29 11:59:53;;;;;;;12.07;3.88;;;;;;;26.37;41.13;92616.47;5092018;28;20039;-47
2022/05/29 12:02:26;;;;;;;11.90;5.28;;;;;;;26.29;41.15;92611.31;5092247;28;20035;-48
2022/05/29 12:04:57;;;;;;;13.50;4.53;;;;;;;26.23;41.76;92601.97;5093084;28;20020;-50
2022/05/29 12:07:28;;;;;;;8.48;4.72;;;;;;;26.57;42.37;92587.88;5091883;28;20058;-48
2022/05/29 12:10:01;;;;;;;14.57;4.53;;;;;;;26.69;40.94;92591.66;5093070;28;20112;-48
2022/05/29 12:12:38;;;;;;;12.35;4.50;;;;;;;26.47;41.01;92588.38;5093217;28;20031;-48
2022/05/29 12:15:13;;;;;;;40.03;6.40;;;;;;;26.37;42.91;92582.50;5091694;28;20023;-49
2022/05/29 12:18:01;;;;;;;10.02;5.40;;;;;;;26.47;40.85;92602.53;5092744;28;20481;-48
2022/05/29 12:20:34;;;;;;;9.65;4.55;;;;;;;26.29;40.88;92599.31;5091600;28;20028;-50
2022/05/29 12:23:04;;;;;;;9.55;4.32;;;;;;;26.37;40.59;92596.66;5092975;28;20032;-49
2022/05/29 12:25:49;;;;;;;8.93;4.50;;;;;;;26.27;41.10;92590.75;5108762;28;20066;-49
2022/05/29 12:28:24;;;;;;;8.70;4.53;;;;;;;26.28;41.16;92578.03;5092518;28;20024;-52
2022/05/29 12:30:50;;;;;;;13.15;4.70;;;;;;;26.42;41.20;92574.81;5092551;28;20071;-47